sensor_id;sensor_type;location;lat;lon;timestamp;temperature;humidity
26212;DHT22;13951;49.516;6.094;2022-07-01T00:00:06;16.90;99.90
26212;DHT22;13951;49.516;6.094;2022-07-01T00:02:50;16.90;99.90
26212;DHT22;13951;49.516;6.094;2022-07-01T00:05:32;16.80;99.90
26212;DHT22;13951;49.516;6.094;2022-07-01T00:08:16;16.90;99.90
26212;DHT22;13951;49.516;6.094;2022-07-01T00:10:49;16.80;99.90
26212;DHT22;13951;49.516;6.094;2022-07-01T00:13:22;16.80;99.90
26212;DHT22;13951;49.516;6.094;2022-07-01T00:15:55;16.80;99.90
26212;DHT22;13951;49.516;6.094;2022-07-01T00:18:27;16.80;99.90
26212;DHT22;13951;49.516;6.094;2022-07-01T00:21:02;16.80;99.90
26212;DHT22;13951;49.516;6.094;2022-07-01T00:23:54;16.80;99.90
26212;DHT22;13951;49.516;6.094;2022-07-01T00:26:31;16.70;99.90
26212;DHT22;13951;49.516;6.094;2022-07-01T00:29:06;16.70;99.90
26212;DHT22;13951;49.516;6.094;2022-07-01T00:31:42;16.60;99.90
26212;DHT22;13951;49.516;6.094;2022-07-01T00:34:15;16.60;99.90
26212;DHT22;13951;49.516;6.094;2022-07-01T00:36:50;16.60;99.90
26212;DHT22;13951;49.516;6.094;2022-07-01T00:39:27;16.50;99.90
26212;DHT22;13951;49.516;6.094;2022-07-01T00:42:11;16.50;99.90
26212;DHT22;13951;49.516;6.094;2022-07-01T00:44:47;16.50;99.90
26212;DHT22;13951;49.516;6.094;2022-07-01T00:47:20;16.40;99.90
26212;DHT22;13951;49.516;6.094;2022-07-01T00:49:53;16.40;99.90
26212;DHT22;13951;49.516;6.094;2022-07-01T00:52:26;16.30;99.90
26212;DHT22;13951;49.516;6.094;2022-07-01T00:55:05;16.30;99.90
26212;DHT22;13951;49.516;6.094;2022-07-01T00:57:40;16.40;99.90
26212;DHT22;13951;49.516;6.094;2022-07-01T01:00:16;16.40;99.90
26212;DHT22;13951;49.516;6.094;2022-07-01T01:02:56;16.40;99.90
26212;DHT22;13951;49.516;6.094;2022-07-01T01:05:29;16.40;99.90
26212;DHT22;13951;49.516;6.094;2022-07-01T01:08:03;16.40;99.90
26212;DHT22;13951;49.516;6.094;2022-07-01T01:10:40;16.50;99.90
26212;DHT22;13951;49.516;6.094;2022-07-01T01:13:13;16.50;99.90
26212;DHT22;13951;49.516;6.094;2022-07-01T01:15:46;16.50;99.90
26212;DHT22;13951;49.516;6.094;2022-07-01T01:18:19;16.50;99.90
26212;DHT22;13951;49.516;6.094;2022-07-01T01:20:52;16.50;99.90
26212;DHT22;13951;49.516;6.094;2022-07-01T01:23:26;16.50;99.90
26212;DHT22;13951;49.516;6.094;2022-07-01T01:25:58;16.40;99.90
26212;DHT22;13951;49.516;6.094;2022-07-01T01:28:31;16.40;99.90
26212;DHT22;13951;49.516;6.094;2022-07-01T01:31:04;16.30;99.90
26212;DHT22;13951;49.516;6.094;2022-07-01T01:33:38;16.30;99.90
26212;DHT22;13951;49.516;6.094;2022-07-01T01:36:11;16.30;99.90
26212;DHT22;13951;49.516;6.094;2022-07-01T01:38:44;16.30;99.90
26212;DHT22;13951;49.516;6.094;2022-07-01T01:41:17;16.30;99.90
26212;DHT22;13951;49.516;6.094;2022-07-01T01:43:50;16.30;99.90
26212;DHT22;13951;49.516;6.094;2022-07-01T01:46:23;16.30;99.90
26212;DHT22;13951;49.516;6.094;2022-07-01T01:48:57;16.20;99.90
26212;DHT22;13951;49.516;6.094;2022-07-01T01:51:30;16.20;99.90
26212;DHT22;13951;49.516;6.094;2022-07-01T01:54:04;16.10;99.90
26212;DHT22;13951;49.516;6.094;2022-07-01T01:56:38;16.00;99.90
26212;DHT22;13951;49.516;6.094;2022-07-01T01:59:10;16.00;99.90
26212;DHT22;13951;49.516;6.094;2022-07-01T02:01:45;15.90;99.90
26212;DHT22;13951;49.516;6.094;2022-07-01T02:04:18;16.00;99.90
26212;DHT22;13951;49.516;6.094;2022-07-01T02:06:52;16.00;99.90
26212;DHT22;13951;49.516;6.094;2022-07-01T02:09:25;16.00;99.90
26212;DHT22;13951;49.516;6.094;2022-07-01T02:11:58;15.90;99.90
26212;DHT22;13951;49.516;6.094;2022-07-01T02:14:31;15.90;99.90
26212;DHT22;13951;49.516;6.094;2022-07-01T02:17:04;15.90;99.90
26212;DHT22;13951;49.516;6.094;2022-07-01T02:19:37;16.00;99.90
26212;DHT22;13951;49.516;6.094;2022-07-01T02:22:10;16.00;99.90
26212;DHT22;13951;49.516;6.094;2022-07-01T02:24:43;16.10;99.90
26212;DHT22;13951;49.516;6.094;2022-07-01T02:27:16;16.00;99.90
26212;DHT22;13951;49.516;6.094;2022-07-01T02:29:49;15.90;99.90
26212;DHT22;13951;49.516;6.094;2022-07-01T02:32:22;15.90;99.90
26212;DHT22;13951;49.516;6.094;2022-07-01T02:34:55;15.90;99.90
26212;DHT22;13951;49.516;6.094;2022-07-01T02:37:28;15.90;99.90
26212;DHT22;13951;49.516;6.094;2022-07-01T02:40:01;15.90;99.90
26212;DHT22;13951;49.516;6.094;2022-07-01T02:42:35;16.00;99.90
26212;DHT22;13951;49.516;6.094;2022-07-01T02:45:08;16.00;99.90
26212;DHT22;13951;49.516;6.094;2022-07-01T02:47:42;15.90;99.90
26212;DHT22;13951;49.516;6.094;2022-07-01T02:50:18;15.90;99.90
26212;DHT22;13951;49.516;6.094;2022-07-01T02:52:57;15.90;99.90
26212;DHT22;13951;49.516;6.094;2022-07-01T02:55:29;15.90;99.90
26212;DHT22;13951;49.516;6.094;2022-07-01T02:58:02;15.90;99.90
26212;DHT22;13951;49.516;6.094;2022-07-01T03:00:37;15.80;99.90
26212;DHT22;13951;49.516;6.094;2022-07-01T03:03:10;15.90;99.90
26212;DHT22;13951;49.516;6.094;2022-07-01T03:05:43;15.80;99.90
26212;DHT22;13951;49.516;6.094;2022-07-01T03:08:16;15.80;99.90
26212;DHT22;13951;49.516;6.094;2022-07-01T03:10:49;15.80;99.90
26212;DHT22;13951;49.516;6.094;2022-07-01T03:13:21;15.80;99.90
26212;DHT22;13951;49.516;6.094;2022-07-01T03:15:54;15.80;99.90
26212;DHT22;13951;49.516;6.094;2022-07-01T03:18:28;14.40;99.90
26212;DHT22;13951;49.516;6.094;2022-07-01T03:21:01;15.80;99.90
26212;DHT22;13951;49.516;6.094;2022-07-01T03:23:33;15.80;99.90
26212;DHT22;13951;49.516;6.094;2022-07-01T03:26:06;15.80;99.90
26212;DHT22;13951;49.516;6.094;2022-07-01T03:28:39;15.80;99.90
26212;DHT22;13951;49.516;6.094;2022-07-01T03:31:12;15.80;99.90
26212;DHT22;13951;49.516;6.094;2022-07-01T03:33:45;15.80;99.90
26212;DHT22;13951;49.516;6.094;2022-07-01T03:36:18;15.90;99.90
26212;DHT22;13951;49.516;6.094;2022-07-01T03:38:51;15.90;99.90
26212;DHT22;13951;49.516;6.094;2022-07-01T03:41:24;16.00;99.90
26212;DHT22;13951;49.516;6.094;2022-07-01T03:43:57;16.00;99.90
26212;DHT22;13951;49.516;6.094;2022-07-01T03:46:30;15.90;99.90
26212;DHT22;13951;49.516;6.094;2022-07-01T03:49:04;15.90;99.90
26212;DHT22;13951;49.516;6.094;2022-07-01T03:51:37;15.90;99.90
26212;DHT22;13951;49.516;6.094;2022-07-01T03:54:10;15.90;99.90
26212;DHT22;13951;49.516;6.094;2022-07-01T03:57:02;16.00;99.90
26212;DHT22;13951;49.516;6.094;2022-07-01T03:59:38;16.00;99.90
26212;DHT22;13951;49.516;6.094;2022-07-01T04:02:11;16.00;99.90
26212;DHT22;13951;49.516;6.094;2022-07-01T04:04:44;16.00;99.90
26212;DHT22;13951;49.516;6.094;2022-07-01T04:07:17;16.00;99.90
26212;DHT22;13951;49.516;6.094;2022-07-01T04:09:51;16.00;99.90
26212;DHT22;13951;49.516;6.094;2022-07-01T04:12:25;16.00;99.90
26212;DHT22;13951;49.516;6.094;2022-07-01T04:14:58;16.10;99.90
26212;DHT22;13951;49.516;6.094;2022-07-01T04:17:32;16.00;99.90
26212;DHT22;13951;49.516;6.094;2022-07-01T04:20:06;16.00;99.90
26212;DHT22;13951;49.516;6.094;2022-07-01T04:22:39;16.00;99.90
26212;DHT22;13951;49.516;6.094;2022-07-01T04:25:12;16.00;99.90
26212;DHT22;13951;49.516;6.094;2022-07-01T04:27:46;16.10;99.90
26212;DHT22;13951;49.516;6.094;2022-07-01T04:30:19;16.10;99.90
26212;DHT22;13951;49.516;6.094;2022-07-01T04:32:52;16.10;99.90
26212;DHT22;13951;49.516;6.094;2022-07-01T04:35:25;16.10;99.90
26212;DHT22;13951;49.516;6.094;2022-07-01T04:37:58;16.10;99.90
26212;DHT22;13951;49.516;6.094;2022-07-01T04:40:31;16.10;99.90
26212;DHT22;13951;49.516;6.094;2022-07-01T04:43:04;16.10;99.90
26212;DHT22;13951;49.516;6.094;2022-07-01T04:45:36;16.10;99.90
26212;DHT22;13951;49.516;6.094;2022-07-01T04:48:09;16.10;99.90
26212;DHT22;13951;49.516;6.094;2022-07-01T04:50:42;16.20;99.90
26212;DHT22;13951;49.516;6.094;2022-07-01T04:53:17;16.20;99.90
26212;DHT22;13951;49.516;6.094;2022-07-01T04:55:49;16.20;99.90
26212;DHT22;13951;49.516;6.094;2022-07-01T04:58:22;16.20;99.90
26212;DHT22;13951;49.516;6.094;2022-07-01T05:00:55;16.20;99.90
26212;DHT22;13951;49.516;6.094;2022-07-01T05:03:28;16.30;99.90
26212;DHT22;13951;49.516;6.094;2022-07-01T05:06:02;16.20;99.90
26212;DHT22;13951;49.516;6.094;2022-07-01T05:08:34;16.30;99.90
26212;DHT22;13951;49.516;6.094;2022-07-01T05:11:07;16.30;99.90
26212;DHT22;13951;49.516;6.094;2022-07-01T05:13:40;16.30;99.90
26212;DHT22;13951;49.516;6.094;2022-07-01T05:16:13;16.30;99.90
26212;DHT22;13951;49.516;6.094;2022-07-01T05:18:46;16.30;99.90
26212;DHT22;13951;49.516;6.094;2022-07-01T05:21:38;16.30;99.90
26212;DHT22;13951;49.516;6.094;2022-07-01T05:24:31;16.30;99.90
26212;DHT22;13951;49.516;6.094;2022-07-01T05:27:04;16.30;99.90
26212;DHT22;13951;49.516;6.094;2022-07-01T05:29:37;16.30;99.90
26212;DHT22;13951;49.516;6.094;2022-07-01T05:32:10;16.30;99.90
26212;DHT22;13951;49.516;6.094;2022-07-01T05:34:43;16.30;99.90
26212;DHT22;13951;49.516;6.094;2022-07-01T05:37:17;16.30;99.90
26212;DHT22;13951;49.516;6.094;2022-07-01T05:39:52;16.30;99.90
26212;DHT22;13951;49.516;6.094;2022-07-01T05:42:25;16.30;99.90
26212;DHT22;13951;49.516;6.094;2022-07-01T05:44:58;16.30;99.90
26212;DHT22;13951;49.516;6.094;2022-07-01T05:47:31;16.40;99.90
26212;DHT22;13951;49.516;6.094;2022-07-01T05:50:04;16.50;99.90
26212;DHT22;13951;49.516;6.094;2022-07-01T05:52:37;16.60;99.90
26212;DHT22;13951;49.516;6.094;2022-07-01T05:55:10;16.60;99.90
26212;DHT22;13951;49.516;6.094;2022-07-01T05:57:43;16.70;99.90
26212;DHT22;13951;49.516;6.094;2022-07-01T06:00:16;16.80;99.90
26212;DHT22;13951;49.516;6.094;2022-07-01T06:02:49;16.80;99.90
26212;DHT22;13951;49.516;6.094;2022-07-01T06:05:22;16.80;99.90
26212;DHT22;13951;49.516;6.094;2022-07-01T06:07:55;16.90;99.90
26212;DHT22;13951;49.516;6.094;2022-07-01T06:10:28;16.90;99.90
26212;DHT22;13951;49.516;6.094;2022-07-01T06:13:02;16.90;99.90
26212;DHT22;13951;49.516;6.094;2022-07-01T06:15:35;16.90;99.90
26212;DHT22;13951;49.516;6.094;2022-07-01T06:18:08;17.00;99.90
26212;DHT22;13951;49.516;6.094;2022-07-01T06:20:41;17.00;99.90
26212;DHT22;13951;49.516;6.094;2022-07-01T06:23:14;17.00;99.90
26212;DHT22;13951;49.516;6.094;2022-07-01T06:25:47;17.00;99.90
26212;DHT22;13951;49.516;6.094;2022-07-01T06:28:20;17.00;99.90
26212;DHT22;13951;49.516;6.094;2022-07-01T06:30:53;17.10;99.90
26212;DHT22;13951;49.516;6.094;2022-07-01T06:33:27;17.10;99.90
26212;DHT22;13951;49.516;6.094;2022-07-01T06:36:03;17.10;99.90
26212;DHT22;13951;49.516;6.094;2022-07-01T06:38:36;17.20;99.90
26212;DHT22;13951;49.516;6.094;2022-07-01T06:41:08;17.30;99.90
26212;DHT22;13951;49.516;6.094;2022-07-01T06:44:01;17.40;99.90
26212;DHT22;13951;49.516;6.094;2022-07-01T06:46:34;17.50;99.90
26212;DHT22;13951;49.516;6.094;2022-07-01T06:49:07;17.50;99.90
26212;DHT22;13951;49.516;6.094;2022-07-01T06:51:40;17.70;99.90
26212;DHT22;13951;49.516;6.094;2022-07-01T06:54:14;17.70;99.90
26212;DHT22;13951;49.516;6.094;2022-07-01T06:56:47;17.70;99.90
26212;DHT22;13951;49.516;6.094;2022-07-01T06:59:20;17.60;99.90
26212;DHT22;13951;49.516;6.094;2022-07-01T07:01:53;17.60;99.90
26212;DHT22;13951;49.516;6.094;2022-07-01T07:04:27;17.60;99.90
26212;DHT22;13951;49.516;6.094;2022-07-01T07:07:20;17.70;99.90
26212;DHT22;13951;49.516;6.094;2022-07-01T07:09:53;17.80;99.90
26212;DHT22;13951;49.516;6.094;2022-07-01T07:12:26;17.90;99.90
26212;DHT22;13951;49.516;6.094;2022-07-01T07:14:59;18.00;99.90
26212;DHT22;13951;49.516;6.094;2022-07-01T07:17:32;18.00;99.90
26212;DHT22;13951;49.516;6.094;2022-07-01T07:20:05;18.00;99.90
26212;DHT22;13951;49.516;6.094;2022-07-01T07:22:38;18.10;99.90
26212;DHT22;13951;49.516;6.094;2022-07-01T07:25:11;18.10;99.90
26212;DHT22;13951;49.516;6.094;2022-07-01T07:27:44;18.00;99.90
26212;DHT22;13951;49.516;6.094;2022-07-01T07:30:19;18.10;99.90
26212;DHT22;13951;49.516;6.094;2022-07-01T07:32:52;18.00;99.90
26212;DHT22;13951;49.516;6.094;2022-07-01T07:35:27;18.10;99.90
26212;DHT22;13951;49.516;6.094;2022-07-01T07:38:00;18.00;99.90
26212;DHT22;13951;49.516;6.094;2022-07-01T07:40:34;18.00;99.90
26212;DHT22;13951;49.516;6.094;2022-07-01T07:43:07;18.00;99.90
26212;DHT22;13951;49.516;6.094;2022-07-01T07:45:40;17.90;99.90
26212;DHT22;13951;49.516;6.094;2022-07-01T07:48:14;17.90;99.90
26212;DHT22;13951;49.516;6.094;2022-07-01T07:50:47;18.20;99.90
26212;DHT22;13951;49.516;6.094;2022-07-01T07:53:20;18.60;99.90
26212;DHT22;13951;49.516;6.094;2022-07-01T07:55:53;18.90;99.90
26212;DHT22;13951;49.516;6.094;2022-07-01T07:58:26;19.30;99.90
26212;DHT22;13951;49.516;6.094;2022-07-01T08:00:59;19.30;99.90
26212;DHT22;13951;49.516;6.094;2022-07-01T08:03:36;19.10;99.90
26212;DHT22;13951;49.516;6.094;2022-07-01T08:06:10;19.10;99.90
26212;DHT22;13951;49.516;6.094;2022-07-01T08:08:43;19.20;99.90
26212;DHT22;13951;49.516;6.094;2022-07-01T08:11:16;19.30;99.90
26212;DHT22;13951;49.516;6.094;2022-07-01T08:13:49;19.50;99.90
26212;DHT22;13951;49.516;6.094;2022-07-01T08:16:22;19.80;99.90
26212;DHT22;13951;49.516;6.094;2022-07-01T08:18:55;20.10;99.90
26212;DHT22;13951;49.516;6.094;2022-07-01T08:21:29;20.20;99.90
26212;DHT22;13951;49.516;6.094;2022-07-01T08:24:02;20.10;99.90
26212;DHT22;13951;49.516;6.094;2022-07-01T08:26:35;19.90;99.90
26212;DHT22;13951;49.516;6.094;2022-07-01T08:29:08;19.80;99.90
26212;DHT22;13951;49.516;6.094;2022-07-01T08:31:40;19.70;99.90
26212;DHT22;13951;49.516;6.094;2022-07-01T08:34:13;19.90;99.90
26212;DHT22;13951;49.516;6.094;2022-07-01T08:36:48;20.10;99.90
26212;DHT22;13951;49.516;6.094;2022-07-01T08:39:21;20.40;99.90
26212;DHT22;13951;49.516;6.094;2022-07-01T08:41:54;20.50;99.90
26212;DHT22;13951;49.516;6.094;2022-07-01T08:44:28;20.80;99.90
26212;DHT22;13951;49.516;6.094;2022-07-01T08:47:02;21.00;99.90
26212;DHT22;13951;49.516;6.094;2022-07-01T08:49:35;21.20;99.90
26212;DHT22;13951;49.516;6.094;2022-07-01T08:52:08;21.30;99.90
26212;DHT22;13951;49.516;6.094;2022-07-01T08:54:44;21.40;99.90
26212;DHT22;13951;49.516;6.094;2022-07-01T08:57:21;21.60;99.90
26212;DHT22;13951;49.516;6.094;2022-07-01T09:00:01;21.70;99.90
26212;DHT22;13951;49.516;6.094;2022-07-01T09:05:29;21.90;99.90
26212;DHT22;13951;49.516;6.094;2022-07-01T09:08:04;22.00;99.90
26212;DHT22;13951;49.516;6.094;2022-07-01T09:10:37;21.90;99.90
26212;DHT22;13951;49.516;6.094;2022-07-01T09:13:13;22.00;99.90
26212;DHT22;13951;49.516;6.094;2022-07-01T09:15:46;22.20;99.90
26212;DHT22;13951;49.516;6.094;2022-07-01T09:18:19;22.30;99.90
26212;DHT22;13951;49.516;6.094;2022-07-01T09:20:52;22.50;99.90
26212;DHT22;13951;49.516;6.094;2022-07-01T09:23:25;22.60;99.90
26212;DHT22;13951;49.516;6.094;2022-07-01T09:25:58;22.70;99.90
26212;DHT22;13951;49.516;6.094;2022-07-01T09:28:31;22.60;99.90
26212;DHT22;13951;49.516;6.094;2022-07-01T09:31:04;22.60;99.90
26212;DHT22;13951;49.516;6.094;2022-07-01T09:33:37;22.80;99.90
26212;DHT22;13951;49.516;6.094;2022-07-01T09:36:14;22.80;99.90
26212;DHT22;13951;49.516;6.094;2022-07-01T09:38:48;22.90;98.90
26212;DHT22;13951;49.516;6.094;2022-07-01T09:41:23;22.90;98.30
26212;DHT22;13951;49.516;6.094;2022-07-01T09:44:04;23.00;99.40
26212;DHT22;13951;49.516;6.094;2022-07-01T09:46:37;23.10;97.90
26212;DHT22;13951;49.516;6.094;2022-07-01T09:49:10;23.10;97.10
26212;DHT22;13951;49.516;6.094;2022-07-01T09:51:43;23.30;97.80
26212;DHT22;13951;49.516;6.094;2022-07-01T09:54:17;23.50;97.30
26212;DHT22;13951;49.516;6.094;2022-07-01T09:56:50;23.80;95.00
26212;DHT22;13951;49.516;6.094;2022-07-01T09:59:23;23.90;96.20
26212;DHT22;13951;49.516;6.094;2022-07-01T10:01:56;23.90;95.50
26212;DHT22;13951;49.516;6.094;2022-07-01T10:04:40;24.10;96.10
26212;DHT22;13951;49.516;6.094;2022-07-01T10:13:24;23.40;95.30
26212;DHT22;13951;49.516;6.094;2022-07-01T10:15:58;23.00;95.30
26212;DHT22;13951;49.516;6.094;2022-07-01T10:18:33;22.70;95.70
26212;DHT22;13951;49.516;6.094;2022-07-01T10:21:06;22.60;94.10
26212;DHT22;13951;49.516;6.094;2022-07-01T10:23:40;22.70;93.90
26212;DHT22;13951;49.516;6.094;2022-07-01T10:26:13;22.90;94.70
26212;DHT22;13951;49.516;6.094;2022-07-01T10:28:51;23.20;93.50
26212;DHT22;13951;49.516;6.094;2022-07-01T10:31:36;23.50;93.80
26212;DHT22;13951;49.516;6.094;2022-07-01T10:34:14;23.90;93.70
26212;DHT22;13951;49.516;6.094;2022-07-01T10:37:00;23.90;91.20
26212;DHT22;13951;49.516;6.094;2022-07-01T10:40:02;23.90;92.30
26212;DHT22;13951;49.516;6.094;2022-07-01T10:42:58;23.70;92.40
26212;DHT22;13951;49.516;6.094;2022-07-01T10:45:48;23.60;93.50
26212;DHT22;13951;49.516;6.094;2022-07-01T10:48:24;23.50;94.30
26212;DHT22;13951;49.516;6.094;2022-07-01T10:50:57;23.40;93.90
26212;DHT22;13951;49.516;6.094;2022-07-01T10:53:47;23.30;93.60
26212;DHT22;13951;49.516;6.094;2022-07-01T10:56:39;23.20;93.70
26212;DHT22;13951;49.516;6.094;2022-07-01T10:59:19;23.10;93.60
26212;DHT22;13951;49.516;6.094;2022-07-01T11:01:54;23.30;94.10
26212;DHT22;13951;49.516;6.094;2022-07-01T11:04:37;23.70;94.60
26212;DHT22;13951;49.516;6.094;2022-07-01T11:07:11;24.10;90.80
26212;DHT22;13951;49.516;6.094;2022-07-01T11:09:44;24.30;92.00
26212;DHT22;13951;49.516;6.094;2022-07-01T11:12:17;24.70;90.90
26212;DHT22;13951;49.516;6.094;2022-07-01T11:14:55;25.00;83.80
26212;DHT22;13951;49.516;6.094;2022-07-01T11:17:28;25.20;84.20
26212;DHT22;13951;49.516;6.094;2022-07-01T11:20:02;25.60;83.10
26212;DHT22;13951;49.516;6.094;2022-07-01T11:22:36;25.80;83.30
26212;DHT22;13951;49.516;6.094;2022-07-01T11:25:11;26.00;83.60
26212;DHT22;13951;49.516;6.094;2022-07-01T11:27:49;26.10;79.40
26212;DHT22;13951;49.516;6.094;2022-07-01T11:30:22;25.90;79.30
26212;DHT22;13951;49.516;6.094;2022-07-01T11:32:57;25.60;76.90
26212;DHT22;13951;49.516;6.094;2022-07-01T11:35:32;25.40;80.10
26212;DHT22;13951;49.516;6.094;2022-07-01T11:38:25;25.40;83.00
26212;DHT22;13951;49.516;6.094;2022-07-01T11:41:22;25.30;78.50
26212;DHT22;13951;49.516;6.094;2022-07-01T11:43:57;25.50;80.40
26212;DHT22;13951;49.516;6.094;2022-07-01T11:46:30;25.70;80.30
26212;DHT22;13951;49.516;6.094;2022-07-01T11:49:11;25.90;79.60
26212;DHT22;13951;49.516;6.094;2022-07-01T11:51:54;26.10;74.40
26212;DHT22;13951;49.516;6.094;2022-07-01T11:54:28;26.30;75.20
26212;DHT22;13951;49.516;6.094;2022-07-01T11:57:09;26.50;77.30
26212;DHT22;13951;49.516;6.094;2022-07-01T11:59:43;26.70;77.70
26212;DHT22;13951;49.516;6.094;2022-07-01T12:02:18;26.70;76.40
26212;DHT22;13951;49.516;6.094;2022-07-01T12:04:52;26.50;78.70
26212;DHT22;13951;49.516;6.094;2022-07-01T12:07:25;26.30;80.60
26212;DHT22;13951;49.516;6.094;2022-07-01T12:09:58;26.20;80.90
26212;DHT22;13951;49.516;6.094;2022-07-01T12:12:34;26.40;82.60
26212;DHT22;13951;49.516;6.094;2022-07-01T12:15:13;26.40;78.50
26212;DHT22;13951;49.516;6.094;2022-07-01T12:17:46;26.20;77.80
26212;DHT22;13951;49.516;6.094;2022-07-01T12:20:32;25.90;76.20
26212;DHT22;13951;49.516;6.094;2022-07-01T12:23:12;25.60;78.10
26212;DHT22;13951;49.516;6.094;2022-07-01T12:25:50;25.10;76.20
26212;DHT22;13951;49.516;6.094;2022-07-01T12:28:43;24.80;80.70
26212;DHT22;13951;49.516;6.094;2022-07-01T12:31:16;24.60;82.30
26212;DHT22;13951;49.516;6.094;2022-07-01T12:33:51;24.50;83.10
26212;DHT22;13951;49.516;6.094;2022-07-01T12:36:24;24.60;78.30
26212;DHT22;13951;49.516;6.094;2022-07-01T12:39:05;24.50;80.60
26212;DHT22;13951;49.516;6.094;2022-07-01T12:41:38;24.40;80.10
26212;DHT22;13951;49.516;6.094;2022-07-01T12:44:25;24.20;81.30
26212;DHT22;13951;49.516;6.094;2022-07-01T12:46:58;24.00;78.40
26212;DHT22;13951;49.516;6.094;2022-07-01T12:49:31;24.00;78.00
26212;DHT22;13951;49.516;6.094;2022-07-01T12:52:26;23.80;78.20
26212;DHT22;13951;49.516;6.094;2022-07-01T12:54:59;23.60;80.00
26212;DHT22;13951;49.516;6.094;2022-07-01T12:57:37;23.60;83.00
26212;DHT22;13951;49.516;6.094;2022-07-01T13:00:11;23.50;81.70
26212;DHT22;13951;49.516;6.094;2022-07-01T13:02:44;23.40;81.40
26212;DHT22;13951;49.516;6.094;2022-07-01T13:05:17;23.30;81.30
26212;DHT22;13951;49.516;6.094;2022-07-01T13:07:51;23.10;80.40
26212;DHT22;13951;49.516;6.094;2022-07-01T13:10:24;23.00;82.80
26212;DHT22;13951;49.516;6.094;2022-07-01T13:12:57;22.90;83.20
26212;DHT22;13951;49.516;6.094;2022-07-01T13:15:31;22.90;85.20
26212;DHT22;13951;49.516;6.094;2022-07-01T13:18:05;22.90;85.10
26212;DHT22;13951;49.516;6.094;2022-07-01T13:20:38;22.80;86.50
26212;DHT22;13951;49.516;6.094;2022-07-01T13:23:13;22.80;88.40
26212;DHT22;13951;49.516;6.094;2022-07-01T13:25:46;22.80;90.00
26212;DHT22;13951;49.516;6.094;2022-07-01T13:28:19;22.80;89.00
26212;DHT22;13951;49.516;6.094;2022-07-01T13:30:52;22.80;90.40
26212;DHT22;13951;49.516;6.094;2022-07-01T13:33:25;22.80;90.40
26212;DHT22;13951;49.516;6.094;2022-07-01T13:35:57;22.90;90.90
26212;DHT22;13951;49.516;6.094;2022-07-01T13:38:31;22.90;88.90
26212;DHT22;13951;49.516;6.094;2022-07-01T13:41:04;22.80;88.10
26212;DHT22;13951;49.516;6.094;2022-07-01T13:43:37;22.70;89.80
26212;DHT22;13951;49.516;6.094;2022-07-01T13:46:10;22.70;90.10
26212;DHT22;13951;49.516;6.094;2022-07-01T13:48:43;22.50;89.30
26212;DHT22;13951;49.516;6.094;2022-07-01T13:51:16;22.30;90.40
26212;DHT22;13951;49.516;6.094;2022-07-01T13:53:48;22.10;90.90
26212;DHT22;13951;49.516;6.094;2022-07-01T13:56:22;22.10;90.80
26212;DHT22;13951;49.516;6.094;2022-07-01T13:58:55;22.10;90.20
26212;DHT22;13951;49.516;6.094;2022-07-01T14:01:28;22.00;90.50
26212;DHT22;13951;49.516;6.094;2022-07-01T14:04:01;21.90;90.40
26212;DHT22;13951;49.516;6.094;2022-07-01T14:06:34;21.90;90.60
26212;DHT22;13951;49.516;6.094;2022-07-01T14:09:07;22.00;91.90
26212;DHT22;13951;49.516;6.094;2022-07-01T14:11:40;22.00;91.20
26212;DHT22;13951;49.516;6.094;2022-07-01T14:14:13;22.10;90.60
26212;DHT22;13951;49.516;6.094;2022-07-01T14:16:46;22.10;91.30
26212;DHT22;13951;49.516;6.094;2022-07-01T14:19:19;22.10;90.00
26212;DHT22;13951;49.516;6.094;2022-07-01T14:21:53;22.20;89.20
26212;DHT22;13951;49.516;6.094;2022-07-01T14:24:27;22.30;89.20
26212;DHT22;13951;49.516;6.094;2022-07-01T14:27:00;22.40;88.90
26212;DHT22;13951;49.516;6.094;2022-07-01T14:29:33;22.50;90.00
26212;DHT22;13951;49.516;6.094;2022-07-01T14:32:06;22.50;83.90
26212;DHT22;13951;49.516;6.094;2022-07-01T14:34:39;22.60;85.20
26212;DHT22;13951;49.516;6.094;2022-07-01T14:37:13;22.60;84.40
26212;DHT22;13951;49.516;6.094;2022-07-01T14:39:46;22.60;83.20
26212;DHT22;13951;49.516;6.094;2022-07-01T14:42:19;22.60;85.20
26212;DHT22;13951;49.516;6.094;2022-07-01T14:44:53;22.50;83.00
26212;DHT22;13951;49.516;6.094;2022-07-01T14:47:26;22.50;83.00
26212;DHT22;13951;49.516;6.094;2022-07-01T14:49:59;22.50;84.50
26212;DHT22;13951;49.516;6.094;2022-07-01T14:52:33;22.50;85.90
26212;DHT22;13951;49.516;6.094;2022-07-01T14:55:06;22.50;81.00
26212;DHT22;13951;49.516;6.094;2022-07-01T14:57:39;22.40;79.20
26212;DHT22;13951;49.516;6.094;2022-07-01T15:00:12;22.40;81.80
26212;DHT22;13951;49.516;6.094;2022-07-01T15:02:46;22.50;84.00
26212;DHT22;13951;49.516;6.094;2022-07-01T15:05:19;22.50;80.60
26212;DHT22;13951;49.516;6.094;2022-07-01T15:07:51;22.40;79.20
26212;DHT22;13951;49.516;6.094;2022-07-01T15:10:24;22.40;80.70
26212;DHT22;13951;49.516;6.094;2022-07-01T15:12:57;22.40;82.90
26212;DHT22;13951;49.516;6.094;2022-07-01T15:15:30;22.40;83.40
26212;DHT22;13951;49.516;6.094;2022-07-01T15:18:04;22.30;84.50
26212;DHT22;13951;49.516;6.094;2022-07-01T15:20:36;22.30;81.50
26212;DHT22;13951;49.516;6.094;2022-07-01T15:23:09;22.30;80.80
26212;DHT22;13951;49.516;6.094;2022-07-01T15:25:42;22.30;83.00
26212;DHT22;13951;49.516;6.094;2022-07-01T15:28:15;22.20;85.90
26212;DHT22;13951;49.516;6.094;2022-07-01T15:30:48;22.20;83.30
26212;DHT22;13951;49.516;6.094;2022-07-01T15:33:22;22.20;83.20
26212;DHT22;13951;49.516;6.094;2022-07-01T15:35:55;22.20;85.20
26212;DHT22;13951;49.516;6.094;2022-07-01T15:38:28;22.30;82.00
26212;DHT22;13951;49.516;6.094;2022-07-01T15:41:01;22.30;83.90
26212;DHT22;13951;49.516;6.094;2022-07-01T15:43:34;22.20;83.60
26212;DHT22;13951;49.516;6.094;2022-07-01T15:46:07;22.30;83.10
26212;DHT22;13951;49.516;6.094;2022-07-01T15:48:40;22.20;81.50
26212;DHT22;13951;49.516;6.094;2022-07-01T15:51:13;22.20;83.40
26212;DHT22;13951;49.516;6.094;2022-07-01T15:53:46;22.20;84.60
26212;DHT22;13951;49.516;6.094;2022-07-01T15:56:20;22.20;84.10
26212;DHT22;13951;49.516;6.094;2022-07-01T15:58:52;22.10;82.50
26212;DHT22;13951;49.516;6.094;2022-07-01T16:01:25;22.10;84.30
26212;DHT22;13951;49.516;6.094;2022-07-01T16:04:01;22.10;83.00
26212;DHT22;13951;49.516;6.094;2022-07-01T16:06:34;22.00;80.90
26212;DHT22;13951;49.516;6.094;2022-07-01T16:09:08;21.90;82.10
26212;DHT22;13951;49.516;6.094;2022-07-01T16:11:44;21.90;83.70
26212;DHT22;13951;49.516;6.094;2022-07-01T16:14:20;21.90;85.10
26212;DHT22;13951;49.516;6.094;2022-07-01T16:16:56;21.90;83.00
26212;DHT22;13951;49.516;6.094;2022-07-01T16:19:30;21.80;84.50
26212;DHT22;13951;49.516;6.094;2022-07-01T16:22:04;21.80;85.10
26212;DHT22;13951;49.516;6.094;2022-07-01T16:24:40;21.80;86.00